Time;durP1;ratioP1;P1;durP2;ratioP2;P2;SDS_P1;SDS_P2;PMS_P1;PMS_P2;Temp;Humidity;BMP_temperature;BMP_pressure;BME280_temperature;BME280_humidity;BME280_pressure;Samples;Min_cycle;Max_cycle;Signal;HPM_P1;HPM_P2
2022/10/07 00:01:52;;;;;;;;;;;20.00;84.00;;;;;;5114572;28;19993;-61
2022/10/07 00:04:18;;;;;;;;;;;19.90;83.60;;;;;;5111755;28;20373;-61
2022/10/07 00:06:44;;;;;;;;;;;19.80;83.60;;;;;;5087335;28;19958;-61
2022/10/07 00:09:10;;;;;;;;;;;20.10;83.80;;;;;;5095511;28;19934;-61
2022/10/07 00:11:36;;;;;;;;;;;19.80;83.60;;;;;;5113946;28;19925;-62
2022/10/07 00:14:02;;;;;;;;;;;19.80;83.60;;;;;;5112098;28;19924;-61
2022/10/07 00:16:31;;;;;;;;;;;20.10;83.70;;;;;;5111690;28;19976;-63
2022/10/07 00:18:58;;;;;;;;;;;20.10;82.80;;;;;;5114079;28;20285;-62
2022/10/07 00:21:24;;;;;;;;;;;19.90;83.60;;;;;;5095935;28;19923;-63
2022/10/07 00:23:50;;;;;;;;;;;19.90;84.10;;;;;;5114110;28;19930;-61
2022/10/07 00:26:16;;;;;;;;;;;19.90;83.60;;;;;;5108761;28;19924;-61
2022/10/07 00:28:42;;;;;;;;;;;20.00;84.20;;;;;;5094256;28;19928;-62
2022/10/07 00:31:08;;;;;;;;;;;19.90;83.70;;;;;;5093692;28;19985;-61
2022/10/07 00:33:35;;;;;;;;;;;20.20;83.80;;;;;;5096184;28;20037;-61
2022/10/07 00:36:00;;;;;;;;;;;19.90;83.60;;;;;;5102111;28;19983;-65
2022/10/07 00:38:26;;;;;;;;;;;19.80;83.60;;;;;;5109001;28;20002;-62
2022/10/07 00:40:52;;;;;;;;;;;19.80;83.90;;;;;;5095430;28;19924;-62
2022/10/07 00:43:25;;;;;;;;;;;19.80;83.50;;;;;;5114661;28;20018;-62
2022/10/07 00:45:51;;;;;;;;;;;19.70;82.70;;;;;;5117698;28;20308;-61
2022/10/07 00:48:21;;;;;;;;;;;19.70;83.60;;;;;;5097253;28;19937;-65
2022/10/07 00:50:48;;;;;;;;;;;20.10;83.70;;;;;;5098743;28;19923;-61
2022/10/07 00:53:13;;;;;;;;;;;19.70;83.50;;;;;;5082158;28;19931;-63
2022/10/07 00:55:39;;;;;;;;;;;19.70;83.50;;;;;;5116325;28;19924;-61
2022/10/07 00:58:08;;;;;;;;;;;20.00;83.50;;;;;;5096944;28;19974;-61
2022/10/07 01:00:34;;;;;;;;;;;20.00;83.90;;;;;;5117278;28;19928;-61
2022/10/07 01:03:00;;;;;;;;;;;19.90;83.60;;;;;;5115626;28;19934;-61
2022/10/07 01:05:26;;;;;;;;;;;19.70;83.40;;;;;;5099114;28;19919;-62
2022/10/07 01:07:51;;;;;;;;;;;19.70;83.40;;;;;;5115832;28;19923;-62
2022/10/07 01:10:18;;;;;;;;;;;20.00;83.60;;;;;;5114419;28;20066;-61
2022/10/07 01:13:00;;;;;;;;;;;20.00;83.60;;;;;;5116946;28;19930;-62
2022/10/07 01:15:26;;;;;;;;;;;19.90;83.60;;;;;;5116754;28;19923;-62
2022/10/07 01:18:01;;;;;;;;;;;19.50;83.40;;;;;;5116740;28;20001;-61
2022/10/07 01:20:44;;;;;;;;;;;19.90;83.60;;;;;;5104225;28;19931;-62
2022/10/07 01:23:15;;;;;;;;;;;19.60;83.40;;;;;;5079125;28;20012;-63
2022/10/07 01:25:46;;;;;;;;;;;19.80;83.50;;;;;;5090343;28;19928;-62
2022/10/07 01:28:17;;;;;;;;;;;19.80;83.60;;;;;;5115663;28;19924;-61
2022/10/07 01:30:43;;;;;;;;;;;20.00;83.60;;;;;;5114699;28;19947;-62
2022/10/07 01:33:10;;;;;;;;;;;;;;;;;;5096807;28;19931;-65
2022/10/07 01:35:35;;;;;;;;;;;19.70;83.50;;;;;;5114816;28;19923;-61
2022/10/07 01:38:04;;;;;;;;;;;19.70;83.50;;;;;;5098396;28;19946;-63
2022/10/07 01:40:34;;;;;;;;;;;19.80;83.60;;;;;;5098185;28;19928;-61
2022/10/07 01:43:00;;;;;;;;;;;19.70;83.60;;;;;;5098260;28;20278;-61
2022/10/07 01:45:26;;;;;;;;;;;19.70;83.50;;;;;;5095876;28;19924;-61
2022/10/07 01:47:51;;;;;;;;;;;19.80;83.90;;;;;;5098245;28;19969;-61
2022/10/07 01:50:17;;;;;;;;;;;19.60;83.40;;;;;;5114334;28;19920;-61
2022/10/07 01:52:43;;;;;;;;;;;19.70;83.50;;;;;;5096846;28;20357;-61
2022/10/07 01:55:23;;;;;;;;;;;19.80;83.50;;;;;;5112840;28;20355;-61
2022/10/07 01:57:58;;;;;;;;;;;19.50;83.40;;;;;;5116267;28;19924;-62
2022/10/07 02:00:23;;;;;;;;;;;19.70;83.50;;;;;;5115879;28;19931;-61
2022/10/07 02:02:52;;;;;;;;;;;19.60;83.70;;;;;;5115719;28;20401;-61
2022/10/07 02:05:36;;;;;;;;;;;19.60;83.40;;;;;;5113635;28;19924;-61
2022/10/07 02:08:16;;;;;;;;;;;19.70;83.40;;;;;;5116071;28;19959;-61
2022/10/07 02:11:03;;;;;;;;;;;19.60;82.60;;;;;;5115728;28;19927;-62
2022/10/07 02:13:47;;;;;;;;;;;19.80;83.50;;;;;;5114311;28;19931;-61
2022/10/07 02:16:17;;;;;;;;;;;19.70;83.50;;;;;;5113694;28;20339;-61
2022/10/07 02:18:48;;;;;;;;;;;19.80;83.50;;;;;;5097574;28;19919;-60
2022/10/07 02:21:14;;;;;;;;;;;19.60;83.40;;;;;;5115489;28;19969;-61
2022/10/07 02:23:40;;;;;;;;;;;19.70;83.40;;;;;;5096323;28;19928;-61
2022/10/07 02:26:05;;;;;;;;;;;19.50;83.40;;;;;;5079541;28;19958;-61
2022/10/07 02:28:31;;;;;;;;;;;19.70;83.50;;;;;;5113340;28;19924;-61
2022/10/07 02:30:58;;;;;;;;;;;19.40;83.30;;;;;;5081119;28;20379;-61
2022/10/07 02:33:25;;;;;;;;;;;19.60;83.50;;;;;;5096995;28;20290;-62
2022/10/07 02:35:51;;;;;;;;;;;19.70;83.50;;;;;;5097485;28;19919;-61
2022/10/07 02:38:17;;;;;;;;;;;19.70;83.50;;;;;;5113283;28;19978;-61
2022/10/07 02:40:45;;;;;;;;;;;19.70;83.50;;;;;;5097247;28;19963;-61
2022/10/07 02:43:35;;;;;;;;;;;19.90;83.60;;;;;;5097221;28;19924;-61
2022/10/07 02:46:26;;;;;;;;;;;19.50;83.50;;;;;;5052463;28;20015;-61
2022/10/07 02:48:59;;;;;;;;;;;19.70;83.60;;;;;;5048370;28;20456;-61
2022/10/07 02:51:26;;;;;;;;;;;19.60;83.50;;;;;;5052125;28;19924;-62
2022/10/07 02:53:51;;;;;;;;;;;19.60;84.00;;;;;;5035638;28;19925;-61
2022/10/07 02:56:18;;;;;;;;;;;19.60;83.50;;;;;;5034723;28;20307;-62
2022/10/07 02:58:44;;;;;;;;;;;19.60;83.50;;;;;;5052100;28;20016;-61
2022/10/07 03:01:10;;;;;;;;;;;19.40;83.40;;;;;;5052154;28;20310;-61
2022/10/07 03:03:36;;;;;;;;;;;19.60;83.60;;;;;;5035289;28;19925;-61
2022/10/07 03:06:03;;;;;;;;;;;19.60;83.50;;;;;;5049829;28;19928;-62
2022/10/07 03:08:28;;;;;;;;;;;19.40;83.40;;;;;;5051719;28;19928;-62
2022/10/07 03:10:54;;;;;;;;;;;19.30;83.30;;;;;;5051065;28;19939;-61
2022/10/07 03:13:19;;;;;;;;;;;19.70;83.50;;;;;;5051743;28;20110;-61
2022/10/07 03:15:45;;;;;;;;;;;19.60;83.50;;;;;;5020104;28;20384;-62
2022/10/07 03:18:24;;;;;;;;;;;19.30;83.40;;;;;;5050919;28;19929;-61
2022/10/07 03:20:54;;;;;;;;;;;19.50;83.50;;;;;;5035037;28;20433;-61
2022/10/07 03:23:20;;;;;;;;;;;19.40;83.50;;;;;;5092539;28;20007;-61
2022/10/07 03:25:52;;;;;;;;;;;19.50;83.60;;;;;;5114314;28;20315;-61
2022/10/07 03:28:19;;;;;;;;;;;19.40;83.50;;;;;;5105615;28;19928;-61
2022/10/07 03:30:46;;;;;;;;;;;19.50;83.60;;;;;;5093939;28;19923;-61
2022/10/07 03:33:12;;;;;;;;;;;19.60;83.60;;;;;;5093938;28;19985;-62
2022/10/07 03:35:38;;;;;;;;;;;19.30;83.40;;;;;;5113573;28;20339;-62
2022/10/07 03:38:07;;;;;;;;;;;19.40;83.50;;;;;;5112095;28;19924;-62
2022/10/07 03:40:38;;;;;;;;;;;19.60;83.50;;;;;;5113464;28;19978;-61
2022/10/07 03:43:04;;;;;;;;;;;19.40;83.50;;;;;;5113751;28;19923;-61
2022/10/07 03:45:30;;;;;;;;;;;19.50;83.50;;;;;;5114132;28;19925;-61
2022/10/07 03:47:56;;;;;;;;;;;19.60;83.60;;;;;;5114468;28;19923;-61
2022/10/07 03:50:22;;;;;;;;;;;19.30;83.40;;;;;;5112253;28;19967;-61
2022/10/07 03:52:47;;;;;;;;;;;19.60;83.60;;;;;;5114475;28;19952;-61
2022/10/07 03:55:13;;;;;;;;;;;19.50;83.50;;;;;;5113454;28;19949;-61
2022/10/07 03:57:52;;;;;;;;;;;19.30;83.40;;;;;;5113730;28;19985;-61
2022/10/07 04:00:21;;;;;;;;;;;19.30;83.40;;;;;;5111787;28;19924;-61
2022/10/07 04:02:47;;;;;;;;;;;19.20;83.40;;;;;;5114233;28;19935;-61
2022/10/07 04:05:16;;;;;;;;;;;19.30;83.50;;;;;;5114289;28;19977;-61
2022/10/07 04:07:45;;;;;;;;;;;19.60;83.70;;;;;;5113225;28;19923;-61
2022/10/07 04:10:12;;;;;;;;;;;19.40;83.50;;;;;;5111862;28;19942;-61
2022/10/07 04:12:38;;;;;;;;;;;19.20;83.40;;;;;;5113115;28;19923;-62
2022/10/07 04:15:04;;;;;;;;;;;19.40;83.50;;;;;;5113580;28;19931;-61
2022/10/07 04:17:30;;;;;;;;;;;20.10;83.70;;;;;;5114171;28;19934;-61
2022/10/07 04:19:58;;;;;;;;;;;19.50;83.70;;;;;;5116602;28;20465;-61
2022/10/07 04:22:24;;;;;;;;;;;19.40;83.60;;;;;;5102921;28;19924;-61
2022/10/07 04:27:33;;;;;;;;;;;19.20;83.50;;;;;;5097628;28;20271;-61
2022/10/07 04:29:59;;;;;;;;;;;19.50;83.60;;;;;;5097555;28;19974;-62
2022/10/07 04:32:25;;;;;;;;;;;19.30;83.50;;;;;;5107083;28;20421;-61
2022/10/07 04:34:51;;;;;;;;;;;19.40;83.60;;;;;;5117586;28;20391;-62
2022/10/07 04:37:16;;;;;;;;;;;19.20;83.50;;;;;;5099595;28;19924;-62
2022/10/07 04:39:42;;;;;;;;;;;19.30;83.50;;;;;;5116814;28;19949;-61
2022/10/07 04:43:17;;;;;;;;;;;19.50;83.70;;;;;;5115611;28;19931;-61
2022/10/07 04:44:53;;;;;;;;;;;19.30;83.60;;;;;;5117191;28;19930;-62
2022/10/07 04:47:19;;;;;;;;;;;19.20;83.50;;;;;;5117303;28;20018;-61
2022/10/07 04:49:45;;;;;;;;;;;19.10;83.50;;;;;;5117322;28;19931;-61
2022/10/07 04:52:10;;;;;;;;;;;19.30;83.60;;;;;;5117226;28;19954;-61
2022/10/07 04:54:38;;;;;;;;;;;19.20;83.50;;;;;;5115316;28;19968;-61
2022/10/07 04:57:03;;;;;;;;;;;19.10;83.50;;;;;;5117482;28;19936;-62
2022/10/07 04:59:30;;;;;;;;;;;19.30;83.60;;;;;;5099034;28;19935;-61
2022/10/07 05:01:55;;;;;;;;;;;19.10;83.50;;;;;;5117093;28;19923;-61
2022/10/07 05:04:21;;;;;;;;;;;19.20;83.50;;;;;;5114888;28;19926;-61
2022/10/07 05:06:46;;;;;;;;;;;19.10;83.50;;;;;;5116974;28;20010;-61
2022/10/07 05:09:12;;;;;;;;;;;19.30;83.70;;;;;;5116562;28;19923;-61
2022/10/07 05:11:38;;;;;;;;;;;19.20;83.60;;;;;;5116004;28;19946;-61
2022/10/07 05:14:03;;;;;;;;;;;19.20;83.60;;;;;;5113941;28;20121;-61
2022/10/07 05:16:29;;;;;;;;;;;19.20;83.60;;;;;;5117012;28;19932;-62
2022/10/07 05:18:56;;;;;;;;;;;19.20;83.60;;;;;;5117001;28;20365;-61
2022/10/07 05:21:21;;;;;;;;;;;19.00;83.50;;;;;;5117016;28;20319;-61
2022/10/07 05:23:47;;;;;;;;;;;19.20;83.60;;;;;;5116350;28;19931;-62
2022/10/07 05:26:14;;;;;;;;;;;19.20;83.60;;;;;;5103930;28;20011;-62
2022/10/07 05:28:40;;;;;;;;;;;19.10;83.60;;;;;;5100444;28;20084;-61
2022/10/07 05:31:06;;;;;;;;;;;19.00;83.50;;;;;;5115766;28;19924;-61
2022/10/07 05:33:32;;;;;;;;;;;19.30;83.70;;;;;;5116655;28;20364;-62
2022/10/07 05:35:58;;;;;;;;;;;19.30;83.70;;;;;;5114599;28;19924;-61
2022/10/07 05:38:24;;;;;;;;;;;18.90;83.60;;;;;;5116673;28;19924;-61
2022/10/07 05:40:57;;;;;;;;;;;18.90;83.60;;;;;;5116248;28;19935;-62
2022/10/07 05:43:24;;;;;;;;;;;19.00;83.60;;;;;;5115352;28;19924;-61
2022/10/07 05:46:06;;;;;;;;;;;19.10;83.70;;;;;;5115275;28;20404;-62
2022/10/07 05:48:32;;;;;;;;;;;19.00;83.70;;;;;;5115651;28;19924;-61
2022/10/07 05:50:58;;;;;;;;;;;19.10;83.80;;;;;;5116164;28;19920;-61
2022/10/07 05:53:24;;;;;;;;;;;19.30;83.90;;;;;;5116430;28;19931;-62
2022/10/07 05:55:50;;;;;;;;;;;19.30;83.90;;;;;;5116267;28;19933;-61
2022/10/07 05:58:16;;;;;;;;;;;19.20;83.90;;;;;;5095406;28;20381;-61
2022/10/07 06:00:52;;;;;;;;;;;19.20;83.90;;;;;;5097055;28;19993;-62
2022/10/07 06:03:18;;;;;;;;;;;19.00;83.70;;;;;;5115707;28;20005;-61
2022/10/07 06:05:44;;;;;;;;;;;19.20;83.90;;;;;;5098267;28;19965;-61
2022/10/07 06:08:10;;;;;;;;;;;19.20;84.00;;;;;;5113859;28;19931;-63
2022/10/07 06:13:20;;;;;;;;;;;19.20;83.90;;;;;;5113236;28;20003;-63
2022/10/07 06:15:46;;;;;;;;;;;19.20;83.70;;;;;;5114691;28;20448;-63
2022/10/07 06:18:11;;;;;;;;;;;19.10;83.80;;;;;;5115580;28;19930;-65
2022/10/07 06:20:37;;;;;;;;;;;19.20;83.80;;;;;;5115751;28;19924;-61
2022/10/07 06:23:04;;;;;;;;;;;19.30;83.80;;;;;;5113678;28;20365;-61
2022/10/07 06:25:30;;;;;;;;;;;19.50;83.80;;;;;;5115378;28;20381;-61
2022/10/07 06:27:56;;;;;;;;;;;19.30;83.60;;;;;;5115370;28;19969;-62
2022/10/07 06:30:24;;;;;;;;;;;;;;;;;;5112028;28;20015;-68
2022/10/07 06:32:50;;;;;;;;;;;19.50;83.30;;;;;;5111248;28;19928;-70
2022/10/07 06:35:15;;;;;;;;;;;19.60;83.40;;;;;;5095164;28;19924;-69
2022/10/07 06:37:41;;;;;;;;;;;19.70;83.40;;;;;;5095117;28;20427;-67
2022/10/07 06:40:07;;;;;;;;;;;19.60;83.30;;;;;;5102507;28;20354;-69
2022/10/07 06:42:32;;;;;;;;;;;19.80;83.20;;;;;;5115027;28;19924;-70
2022/10/07 06:44:58;;;;;;;;;;;20.00;83.10;;;;;;5113219;28;19923;-68
2022/10/07 06:47:24;;;;;;;;;;;20.00;82.90;;;;;;5115023;28;20112;-69
2022/10/07 06:49:50;;;;;;;;;;;20.00;82.70;;;;;;5114299;28;20433;-70
2022/10/07 06:52:16;;;;;;;;;;;19.90;82.50;;;;;;5097021;28;20020;-70
2022/10/07 06:54:41;;;;;;;;;;;19.90;82.40;;;;;;5112501;28;20054;-69
2022/10/07 06:57:07;;;;;;;;;;;20.20;82.40;;;;;;5115110;28;19926;-70
2022/10/07 06:59:33;;;;;;;;;;;20.10;82.30;;;;;;5114693;28;19930;-70
2022/10/07 07:01:58;;;;;;;;;;;20.10;82.50;;;;;;5115040;28;20293;-70
2022/10/07 07:04:25;;;;;;;;;;;20.30;82.00;;;;;;5113551;28;20022;-67
2022/10/07 07:06:51;;;;;;;;;;;20.30;82.00;;;;;;5096507;28;19924;-69
2022/10/07 07:09:17;;;;;;;;;;;20.40;81.60;;;;;;5096030;28;19947;-69
2022/10/07 07:11:44;;;;;;;;;;;20.70;81.50;;;;;;5114249;28;20301;-70
2022/10/07 07:14:13;;;;;;;;;;;20.60;81.40;;;;;;5114375;28;19979;-65
2022/10/07 07:16:39;;;;;;;;;;;20.60;81.30;;;;;;5111669;28;20365;-70
2022/10/07 07:19:07;;;;;;;;;;;20.70;81.50;;;;;;5113119;28;19946;-65
2022/10/07 07:21:33;;;;;;;;;;;21.00;81.20;;;;;;5112210;28;20336;-70
2022/10/07 07:23:59;;;;;;;;;;;20.70;81.50;;;;;;5114344;28;20431;-70
2022/10/07 07:26:26;;;;;;;;;;;21.10;81.00;;;;;;5112805;28;19928;-69
2022/10/07 07:28:53;;;;;;;;;;;21.20;81.00;;;;;;5114302;28;19968;-70
2022/10/07 07:31:18;;;;;;;;;;;21.10;81.30;;;;;;5114635;28;20297;-70
2022/10/07 07:33:51;;;;;;;;;;;21.00;80.80;;;;;;5114470;28;19923;-70
2022/10/07 07:36:16;;;;;;;;;;;21.10;80.90;;;;;;5093627;28;20408;-65
2022/10/07 07:38:42;;;;;;;;;;;21.10;80.90;;;;;;5080020;28;19919;-62
2022/10/07 07:41:09;;;;;;;;;;;20.80;80.90;;;;;;5114429;28;20327;-62
2022/10/07 07:43:35;;;;;;;;;;;20.80;81.20;;;;;;5115029;28;19928;-62
2022/10/07 07:46:01;;;;;;;;;;;20.90;81.50;;;;;;5114016;28;19969;-62
2022/10/07 07:48:27;;;;;;;;;;;21.00;80.90;;;;;;5111754;28;20014;-62
2022/10/07 07:50:53;;;;;;;;;;;21.10;81.00;;;;;;5095904;28;19923;-62
2022/10/07 07:53:19;;;;;;;;;;;21.00;80.70;;;;;;5114954;28;19928;-63
2022/10/07 07:55:51;;;;;;;;;;;21.00;80.90;;;;;;5118084;28;19992;-62
2022/10/07 07:58:17;;;;;;;;;;;21.30;80.30;;;;;;5116263;28;19924;-62
2022/10/07 08:00:42;;;;;;;;;;;21.10;80.50;;;;;;5118485;28;19932;-62
2022/10/07 08:03:08;;;;;;;;;;;21.10;80.70;;;;;;5118381;28;19981;-62
2022/10/07 08:05:34;;;;;;;;;;;20.90;80.70;;;;;;5118432;28;19968;-69
2022/10/07 08:08:01;;;;;;;;;;;21.10;80.80;;;;;;5116297;28;20284;-61
2022/10/07 08:10:28;;;;;;;;;;;21.00;79.60;;;;;;5095386;28;19945;-62
2022/10/07 08:12:55;;;;;;;;;;;21.50;80.50;;;;;;5105457;28;19930;-62
2022/10/07 08:15:21;;;;;;;;;;;21.50;80.30;;;;;;5097543;28;19931;-62
2022/10/07 08:17:47;;;;;;;;;;;21.40;80.30;;;;;;5098165;28;19924;-62
2022/10/07 08:20:14;;;;;;;;;;;21.60;80.60;;;;;;5111396;28;19923;-68
2022/10/07 08:22:39;;;;;;;;;;;21.60;80.20;;;;;;5118149;28;19928;-61
2022/10/07 08:25:06;;;;;;;;;;;21.30;80.30;;;;;;5118074;28;19924;-62
2022/10/07 08:27:32;;;;;;;;;;;21.40;80.00;;;;;;5117701;28;19920;-62
2022/10/07 08:29:58;;;;;;;;;;;21.60;80.30;;;;;;5115222;28;19930;-62
2022/10/07 08:32:23;;;;;;;;;;;21.40;79.80;;;;;;5117815;28;20015;-62
2022/10/07 08:34:49;;;;;;;;;;;21.70;80.20;;;;;;5117603;28;19934;-62
2022/10/07 08:37:14;;;;;;;;;;;21.60;79.80;;;;;;5117559;28;19989;-62
2022/10/07 08:39:40;;;;;;;;;;;21.70;80.10;;;;;;5116052;28;20027;-62
2022/10/07 08:42:26;;;;;;;;;;;21.60;79.80;;;;;;5117754;28;20296;-68
2022/10/07 08:44:52;;;;;;;;;;;21.80;80.00;;;;;;5106331;28;19923;-63
2022/10/07 08:47:35;;;;;;;;;;;21.50;79.70;;;;;;5097830;28;19924;-69
2022/10/07 08:50:03;;;;;;;;;;;;;;;;;;5116467;28;19924;-64
2022/10/07 08:52:38;;;;;;;;;;;21.50;79.40;;;;;;5082063;28;19923;-62
2022/10/07 08:55:13;;;;;;;;;;;21.80;78.60;;;;;;5096762;28;20023;-64
2022/10/07 08:57:42;;;;;;;;;;;21.80;78.60;;;;;;5096756;28;19928;-61
2022/10/07 09:00:08;;;;;;;;;;;22.00;78.60;;;;;;5096944;28;19924;-64
2022/10/07 09:02:55;;;;;;;;;;;21.60;79.20;;;;;;5081037;28;19924;-62
2022/10/07 09:05:20;;;;;;;;;;;21.80;79.90;;;;;;5111560;28;19930;-62
2022/10/07 09:07:56;;;;;;;;;;;21.60;79.30;;;;;;5114421;28;20019;-62
2022/10/07 09:10:27;;;;;;;;;;;21.60;78.50;;;;;;5117185;28;20266;-61
2022/10/07 09:12:56;;;;;;;;;;;21.70;78.60;;;;;;5096718;28;19970;-62
2022/10/07 09:15:26;;;;;;;;;;;21.50;80.00;;;;;;5117080;28;19930;-62
2022/10/07 09:17:58;;;;;;;;;;;21.60;80.00;;;;;;5098831;28;19923;-61
2022/10/07 09:20:26;;;;;;;;;;;21.70;78.90;;;;;;5098499;28;19931;-62
2022/10/07 09:22:56;;;;;;;;;;;21.60;80.20;;;;;;5096615;28;20293;-61
2022/10/07 09:25:22;;;;;;;;;;;21.50;80.10;;;;;;5116567;28;19920;-61
2022/10/07 09:27:49;;;;;;;;;;;21.60;80.40;;;;;;5116618;28;19955;-61
2022/10/07 09:30:15;;;;;;;;;;;21.30;80.00;;;;;;5098340;28;20006;-68
2022/10/07 09:32:44;;;;;;;;;;;21.60;80.40;;;;;;5098560;28;19956;-62
2022/10/07 09:35:13;;;;;;;;;;;21.70;80.80;;;;;;5096169;28;19928;-62
2022/10/07 09:37:52;;;;;;;;;;;21.20;79.10;;;;;;5116370;28;20360;-66
2022/10/07 09:40:19;;;;;;;;;;;21.40;80.70;;;;;;5114701;28;19950;-63
2022/10/07 09:42:45;;;;;;;;;;;21.30;80.70;;;;;;5116540;28;19927;-62
2022/10/07 09:45:36;;;;;;;;;;;21.60;80.90;;;;;;5114177;28;20323;-63
2022/10/07 09:48:06;;;;;;;;;;;21.30;80.60;;;;;;5095230;28;19966;-61
2022/10/07 09:50:36;;;;;;;;;;;21.40;81.20;;;;;;5081428;28;20286;-62
2022/10/07 09:53:01;;;;;;;;;;;21.30;80.80;;;;;;5116413;28;19924;-62
2022/10/07 09:55:40;;;;;;;;;;;21.20;81.10;;;;;;5114544;28;20365;-63
2022/10/07 09:58:15;;;;;;;;;;;21.30;80.00;;;;;;5116008;28;20007;-67
2022/10/07 10:00:42;;;;;;;;;;;21.30;81.10;;;;;;5097739;28;19959;-65
2022/10/07 10:03:07;;;;;;;;;;;21.40;81.50;;;;;;5113883;28;19923;-63
2022/10/07 10:05:34;;;;;;;;;;;21.50;82.40;;;;;;5095412;28;20305;-62
2022/10/07 10:08:18;;;;;;;;;;;21.60;81.60;;;;;;5113918;28;19982;-62
2022/10/07 10:10:51;;;;;;;;;;;21.40;81.50;;;;;;5115583;28;19971;-65
2022/10/07 10:13:43;;;;;;;;;;;21.20;81.40;;;;;;5115180;28;19924;-62
2022/10/07 10:16:24;;;;;;;;;;;21.40;80.70;;;;;;5110830;28;19924;-62
2022/10/07 10:19:01;;;;;;;;;;;21.30;80.70;;;;;;5115189;28;20335;-62
2022/10/07 10:21:28;;;;;;;;;;;21.20;80.60;;;;;;5097934;28;19931;-64
2022/10/07 10:23:57;;;;;;;;;;;21.60;82.70;;;;;;5115781;28;19924;-65
2022/10/07 10:26:29;;;;;;;;;;;21.60;81.90;;;;;;5097020;28;19927;-61
2022/10/07 10:28:55;;;;;;;;;;;21.60;82.00;;;;;;5101599;28;19924;-62
2022/10/07 10:31:30;;;;;;;;;;;21.40;82.00;;;;;;5115626;28;20328;-63
2022/10/07 10:34:02;;;;;;;;;;;21.50;81.00;;;;;;5115476;28;19930;-63
2022/10/07 10:36:28;;;;;;;;;;;21.60;82.30;;;;;;5103977;28;19927;-70
2022/10/07 10:39:01;;;;;;;;;;;21.40;81.80;;;;;;5113185;28;19924;-64
2022/10/07 10:41:39;;;;;;;;;;;21.70;81.00;;;;;;5115092;28;19924;-62
2022/10/07 10:44:23;;;;;;;;;;;22.00;81.10;;;;;;5115373;28;19924;-64
2022/10/07 10:46:55;;;;;;;;;;;21.70;81.10;;;;;;5115059;28;20079;-63
2022/10/07 10:49:24;;;;;;;;;;;21.90;81.20;;;;;;5094737;28;19923;-62
2022/10/07 10:52:03;;;;;;;;;;;22.30;81.50;;;;;;5113825;28;19924;-62
2022/10/07 10:54:30;;;;;;;;;;;21.90;81.30;;;;;;5096770;28;19966;-62
2022/10/07 10:57:15;;;;;;;;;;;22.10;82.50;;;;;;5115717;28;20015;-68
2022/10/07 10:59:44;;;;;;;;;;;22.00;81.30;;;;;;5111900;28;19930;-63
2022/10/07 11:02:12;;;;;;;;;;;21.90;81.10;;;;;;5114922;28;19923;-64
2022/10/07 11:04:46;;;;;;;;;;;22.10;81.10;;;;;;5114372;28;19923;-67
2022/10/07 11:07:22;;;;;;;;;;;22.00;81.00;;;;;;5114676;28;19935;-68
2022/10/07 11:09:52;;;;;;;;;;;22.00;81.00;;;;;;5083293;28;19932;-69
2022/10/07 11:12:25;;;;;;;;;;;21.90;82.20;;;;;;5089422;28;19928;-65
2022/10/07 11:14:56;;;;;;;;;;;22.10;81.00;;;;;;5096733;28;19976;-62
2022/10/07 11:17:23;;;;;;;;;;;22.30;81.00;;;;;;5096756;28;20330;-62
2022/10/07 11:20:11;;;;;;;;;;;22.00;82.10;;;;;;5112379;28;19967;-67
2022/10/07 11:22:38;;;;;;;;;;;22.10;80.70;;;;;;5093407;28;19932;-68
2022/10/07 11:25:27;;;;;;;;;;;22.10;82.00;;;;;;5079284;28;19924;-68
2022/10/07 11:27:53;;;;;;;;;;;22.30;80.80;;;;;;5106000;28;19924;-63
2022/10/07 11:30:20;;;;;;;;;;;22.10;81.90;;;;;;5096521;28;20448;-66
2022/10/07 11:32:47;;;;;;;;;;;22.10;82.00;;;;;;5096908;28;19924;-64
2022/10/07 11:35:16;;;;;;;;;;;22.00;81.70;;;;;;5114353;28;19994;-65
2022/10/07 11:38:04;;;;;;;;;;;21.80;80.50;;;;;;5114220;28;19930;-67
2022/10/07 11:40:31;;;;;;;;;;;22.10;80.60;;;;;;5071671;28;20033;-66
2022/10/07 11:42:58;;;;;;;;;;;22.30;82.00;;;;;;5055053;28;19971;-64
2022/10/07 11:45:32;;;;;;;;;;;22.40;82.10;;;;;;5055300;28;20003;-68
2022/10/07 11:47:59;;;;;;;;;;;21.90;80.50;;;;;;5071566;28;19924;-68
2022/10/07 11:50:31;;;;;;;;;;;22.30;82.00;;;;;;5054868;28;20015;-67
2022/10/07 11:53:04;;;;;;;;;;;22.30;80.70;;;;;;5054824;28;19932;-66
2022/10/07 11:55:34;;;;;;;;;;;22.10;80.60;;;;;;5071248;28;19931;-67
2022/10/07 11:58:02;;;;;;;;;;;22.30;80.60;;;;;;5055044;28;19949;-70
2022/10/07 12:00:31;;;;;;;;;;;22.50;81.70;;;;;;5071283;28;19925;-65
2022/10/07 12:03:12;;;;;;;;;;;22.60;81.70;;;;;;5054626;28;20342;-67
2022/10/07 12:05:37;;;;;;;;;;;22.80;80.40;;;;;;5071672;28;19924;-68
2022/10/07 12:08:22;;;;;;;;;;;22.60;81.30;;;;;;5054544;28;19924;-68
2022/10/07 12:10:52;;;;;;;;;;;22.80;80.30;;;;;;5071169;28;19948;-69
2022/10/07 12:13:19;;;;;;;;;;;22.70;80.30;;;;;;5054436;28;19935;-67
2022/10/07 12:15:45;;;;;;;;;;;22.80;81.20;;;;;;5071248;28;20019;-67
2022/10/07 12:18:11;;;;;;;;;;;22.70;81.10;;;;;;5104860;28;19974;-64
2022/10/07 12:20:44;;;;;;;;;;;22.80;81.00;;;;;;5113786;28;19931;-67
2022/10/07 12:23:20;;;;;;;;;;;22.80;79.80;;;;;;5114045;28;19931;-68
2022/10/07 12:25:47;;;;;;;;;;;22.90;79.70;;;;;;5113787;28;19924;-64
2022/10/07 12:28:35;;;;;;;;;;;22.80;81.00;;;;;;5095801;28;19931;-67
2022/10/07 12:31:02;;;;;;;;;;;22.80;80.80;;;;;;5113759;28;19924;-63
2022/10/07 12:33:28;;;;;;;;;;;23.20;80.80;;;;;;5095408;28;19968;-66
2022/10/07 12:35:54;;;;;;;;;;;23.10;80.60;;;;;;5095867;28;19968;-68
2022/10/07 12:38:22;;;;;;;;;;;22.90;80.20;;;;;;5113759;28;20424;-69
2022/10/07 12:40:56;;;;;;;;;;;22.90;80.30;;;;;;5116497;28;19924;-64
2022/10/07 12:43:25;;;;;;;;;;;22.70;79.20;;;;;;5110335;28;19985;-64
2022/10/07 12:45:50;;;;;;;;;;;22.90;79.20;;;;;;5117066;28;19960;-67
2022/10/07 12:48:19;;;;;;;;;;;23.00;80.30;;;;;;5117396;28;19924;-65
2022/10/07 12:50:45;;;;;;;;;;;22.80;80.60;;;;;;5117364;28;19930;-68
2022/10/07 12:53:10;;;;;;;;;;;22.70;80.50;;;;;;5099493;28;20010;-69
2022/10/07 12:55:37;;;;;;;;;;;22.70;80.60;;;;;;5082443;28;19920;-64
2022/10/07 13:01:11;;;;;;;;;;;22.60;80.90;;;;;;5101960;28;20293;-66
2022/10/07 13:03:48;;;;;;;;;;;22.20;80.70;;;;;;5116291;28;19924;-63
2022/10/07 13:06:22;;;;;;;;;;;22.30;79.60;;;;;;5099199;28;19924;-69
2022/10/07 13:08:51;;;;;;;;;;;22.50;79.90;;;;;;5098870;28;19927;-64
2022/10/07 13:11:35;;;;;;;;;;;22.40;79.80;;;;;;5098717;28;19952;-64
2022/10/07 13:14:13;;;;;;;;;;;22.30;79.80;;;;;;5116731;28;19924;-68
2022/10/07 13:16:57;;;;;;;;;;;22.20;79.90;;;;;;5117088;28;19935;-66
2022/10/07 13:19:23;;;;;;;;;;;22.20;80.50;;;;;;5116849;28;19930;-69
2022/10/07 13:21:52;;;;;;;;;;;22.40;81.20;;;;;;5117062;28;20010;-65
2022/10/07 13:24:22;;;;;;;;;;;22.20;81.60;;;;;;5098822;28;20046;-66
2022/10/07 13:26:48;;;;;;;;;;;22.10;80.30;;;;;;5116699;28;20397;-68
2022/10/07 13:29:21;;;;;;;;;;;22.30;81.50;;;;;;5099567;28;20004;-64
2022/10/07 13:32:07;;;;;;;;;;;22.20;80.40;;;;;;5081891;28;19924;-65
2022/10/07 13:34:33;;;;;;;;;;;21.90;80.30;;;;;;5098144;28;20433;-64
2022/10/07 13:36:58;;;;;;;;;;;21.90;81.40;;;;;;5098422;28;20018;-67
2022/10/07 13:39:24;;;;;;;;;;;22.00;81.50;;;;;;5098390;28;20301;-67
2022/10/07 13:41:54;;;;;;;;;;;21.90;81.60;;;;;;5116342;28;19930;-68
2022/10/07 13:44:20;;;;;;;;;;;22.00;80.50;;;;;;5098483;28;20387;-66
2022/10/07 13:46:51;;;;;;;;;;;21.80;81.80;;;;;;5081220;28;20020;-69
2022/10/07 13:49:20;;;;;;;;;;;21.70;80.50;;;;;;5116518;28;19989;-65
2022/10/07 13:51:46;;;;;;;;;;;21.90;82.00;;;;;;5097783;28;19931;-66
2022/10/07 13:54:19;;;;;;;;;;;21.70;81.70;;;;;;5098196;28;19924;-68
2022/10/07 13:56:46;;;;;;;;;;;21.80;80.70;;;;;;5115600;28;19930;-65
2022/10/07 13:59:16;;;;;;;;;;;21.90;82.00;;;;;;5095199;28;19924;-72
2022/10/07 14:01:43;;;;;;;;;;;21.70;81.90;;;;;;5097794;28;19924;-75
2022/10/07 14:04:08;;;;;;;;;;;21.90;82.30;;;;;;5116075;28;19935;-74
2022/10/07 14:06:35;;;;;;;;;;;21.70;81.80;;;;;;5114914;28;20381;-70
2022/10/07 14:09:01;;;;;;;;;;;22.00;82.30;;;;;;5096854;28;20331;-74
2022/10/07 14:11:26;;;;;;;;;;;21.70;81.80;;;;;;5111824;28;19924;-74
2022/10/07 14:13:52;;;;;;;;;;;21.80;82.00;;;;;;5097863;28;19924;-75
2022/10/07 14:16:20;;;;;;;;;;;21.60;81.50;;;;;;5079656;28;20355;-75
2022/10/07 14:18:46;;;;;;;;;;;21.90;82.30;;;;;;5090884;28;19924;-70
2022/10/07 14:21:15;;;;;;;;;;;21.80;82.00;;;;;;5115770;28;20377;-75
2022/10/07 14:23:41;;;;;;;;;;;21.60;82.00;;;;;;5097692;28;20301;-71
2022/10/07 14:26:10;;;;;;;;;;;21.80;81.90;;;;;;5097554;28;19923;-72
2022/10/07 14:28:36;;;;;;;;;;;21.60;81.60;;;;;;5112630;28;20000;-74
2022/10/07 14:37:01;;;;;;;;;;;21.80;81.00;;;;;;5101033;28;19924;-72
2022/10/07 14:39:30;;;;;;;;;;;21.50;80.90;;;;;;5097743;28;19924;-74
2022/10/07 14:41:55;;;;;;;;;;;21.80;81.10;;;;;;5095119;28;19924;-75
2022/10/07 14:44:21;;;;;;;;;;;21.70;82.20;;;;;;5104494;28;19920;-65